Time;durP1;ratioP1;P1;durP2;ratioP2;P2;SDS_P1;SDS_P2;PMS_P1;PMS_P2;Temp;Humidity;BMP_temperature;BMP_pressure;BME280_temperature;BME280_humidity;BME280_pressure;Samples;Min_cycle;Max_cycle;Signal;HPM_P1;HPM_P2
2023/09/09 00:01:03;;;;;;;;;23.00;19.00;;;;;26.83;100.00;101178.03;5065158;27;45311;-79
2023/09/09 00:03:28;;;;;;;;;18.67;18.67;;;;;26.81;100.00;101173.69;5065684;27;45299;-77
2023/09/09 00:05:53;;;;;;;;;20.67;17.33;;;;;26.79;100.00;101175.56;5076328;28;64396;-78
2023/09/09 00:08:19;;;;;;;;;18.00;17.00;;;;;26.75;100.00;101174.88;5076214;27;64471;-78
2023/09/09 00:10:45;;;;;;;;;16.00;16.00;;;;;26.74;100.00;101173.13;5076779;27;57321;-78
2023/09/09 00:13:10;;;;;;;;;18.67;18.00;;;;;26.74;100.00;101188.47;5074529;27;45442;-78
2023/09/09 00:15:35;;;;;;;;;21.67;19.00;;;;;26.71;100.00;101172.38;5074122;27;60668;-78
2023/09/09 00:18:04;;;;;;;;;16.67;16.67;;;;;26.71;100.00;101181.38;5076682;27;70767;-78
2023/09/09 00:20:34;;;;;;;;;20.67;18.33;;;;;26.71;100.00;101181.38;5074807;27;45462;-78
2023/09/09 00:23:02;;;;;;;;;23.00;18.00;;;;;26.67;100.00;101181.63;5077452;27;45495;-79
2023/09/09 00:25:29;;;;;;;;;18.00;15.67;;;;;26.64;100.00;101180.84;5072495;28;45532;-78
2023/09/09 00:27:54;;;;;;;;;22.33;18.00;;;;;26.62;100.00;101171.88;5078393;27;46480;-78
2023/09/09 00:30:19;;;;;;;;;23.00;18.00;;;;;26.60;100.00;101176.53;5057799;28;68741;-78
2023/09/09 00:32:45;;;;;;;;;17.67;16.00;;;;;26.59;100.00;101172.06;5072740;28;58494;-78
2023/09/09 00:35:10;;;;;;;;;23.67;20.33;;;;;26.59;100.00;101173.91;5073776;27;45536;-78
2023/09/09 00:37:35;;;;;;;;;21.00;19.00;;;;;26.56;100.00;101171.31;5065993;28;61668;-78
2023/09/09 00:40:01;;;;;;;;;17.33;17.33;;;;;26.53;100.00;101168.78;5071750;27;45629;-78
2023/09/09 00:42:26;;;;;;;;;19.00;19.00;;;;;26.51;100.00;101171.56;5076520;27;62638;-78
2023/09/09 00:44:51;;;;;;;;;19.67;19.67;;;;;26.49;100.00;101169.88;5064702;27;45610;-78
2023/09/09 00:47:17;;;;;;;;;17.33;17.33;;;;;26.46;100.00;101157.34;5066930;28;68846;-78
2023/09/09 00:49:43;;;;;;;;;17.00;16.00;;;;;26.43;100.00;101171.06;5077134;27;45268;-77
2023/09/09 00:52:08;;;;;;;;;19.67;19.00;;;;;26.39;100.00;101167.59;5071336;28;55506;-78
2023/09/09 00:54:34;;;;;;;;;20.00;20.00;;;;;26.40;100.00;101171.19;5064310;28;55634;-79
2023/09/09 00:57:00;;;;;;;;;13.00;10.67;;;;;26.45;100.00;101169.16;5075001;28;67516;-78
2023/09/09 00:59:26;;;;;;;;;19.33;17.67;;;;;26.42;100.00;101174.75;5074246;28;45200;-78
2023/09/09 01:01:52;;;;;;;;;21.67;19.33;;;;;26.41;100.00;101177.47;5064664;27;45184;-78
2023/09/09 01:04:17;;;;;;;;;19.67;19.33;;;;;26.36;100.00;101177.69;5075913;28;45423;-78
2023/09/09 01:06:43;;;;;;;;;20.33;16.33;;;;;26.36;100.00;101174.97;5076120;27;63787;-78
2023/09/09 01:09:08;;;;;;;;;19.67;19.00;;;;;26.32;100.00;101170.69;5071119;27;53166;-78
2023/09/09 01:11:34;;;;;;;;;19.33;18.67;;;;;26.30;100.00;101167.16;5072192;27;45179;-79
2023/09/09 01:13:59;;;;;;;;;23.67;18.33;;;;;26.28;100.00;101167.25;5065906;28;45608;-78
2023/09/09 01:16:26;;;;;;;;;22.33;18.00;;;;;26.27;100.00;101173.63;5069655;28;46494;-78
2023/09/09 01:18:51;;;;;;;;;23.67;18.33;;;;;26.25;100.00;101167.38;5069918;28;45634;-77
2023/09/09 01:21:18;;;;;;;;;21.00;21.00;;;;;26.23;100.00;101165.72;5076854;28;45252;-78
2023/09/09 01:23:43;;;;;;;;;22.33;20.33;;;;;26.26;100.00;101170.97;5075492;28;45318;-79
2023/09/09 01:26:09;;;;;;;;;20.33;19.67;;;;;26.25;100.00;101170.09;5068114;27;56007;-78
2023/09/09 01:28:34;;;;;;;;;22.67;20.33;;;;;26.26;100.00;101170.97;5076548;27;63408;-78
2023/09/09 01:31:00;;;;;;;;;20.67;20.67;;;;;26.25;100.00;101169.22;5067169;27;45304;-78
2023/09/09 01:33:25;;;;;;;;;21.00;21.00;;;;;26.23;100.00;101171.13;5075752;27;60940;-77
2023/09/09 01:35:50;;;;;;;;;24.67;18.67;;;;;26.22;100.00;101172.09;5066622;27;67540;-78
2023/09/09 01:38:16;;;;;;;;;23.00;22.33;;;;;26.23;100.00;101173.84;5070354;28;66902;-78
2023/09/09 01:40:41;;;;;;;;;25.67;22.33;;;;;26.22;100.00;101174.81;5068434;27;63725;-78
2023/09/09 01:43:06;;;;;;;;;20.00;18.00;;;;;26.21;100.00;101173.94;5068973;28;62214;-77
2023/09/09 01:45:32;;;;;;;;;18.67;18.67;;;;;26.18;100.00;101170.47;5076333;27;45650;-78
2023/09/09 01:47:58;;;;;;;;;21.00;19.00;;;;;26.11;100.00;101173.50;5069350;27;63733;-77
2023/09/09 01:50:23;;;;;;;;;19.33;19.33;;;;;26.08;100.00;101180.88;5071350;27;45480;-79
2023/09/09 01:52:49;;;;;;;;;30.33;21.33;;;;;26.05;100.00;101170.22;5073068;28;45543;-78
2023/09/09 01:55:14;;;;;;;;;21.33;20.00;;;;;26.03;100.00;101174.81;5076024;28;46549;-78
2023/09/09 01:57:39;;;;;;;;;23.67;21.67;;;;;25.99;100.00;101174.06;5075049;27;64332;-78
2023/09/09 02:00:09;;;;;;;;;24.00;20.00;;;;;25.99;100.00;101176.75;5065269;27;45269;-79
2023/09/09 02:02:34;;;;;;;;;24.00;22.33;;;;;26.00;100.00;101169.56;5062136;28;45473;-78
2023/09/09 02:05:00;;;;;;;;;22.67;21.67;;;;;25.96;100.00;101174.22;5069319;27;70558;-78
2023/09/09 02:07:25;;;;;;;;;22.67;22.00;;;;;25.95;100.00;101168.91;5075970;27;45507;-78
2023/09/09 02:09:51;;;;;;;;;21.67;21.67;;;;;25.94;100.00;101170.72;5075098;27;45355;-79
2023/09/09 02:12:17;;;;;;;;;23.67;21.00;;;;;25.94;100.00;101175.22;5071200;27;58037;-79
2023/09/09 02:14:42;;;;;;;;;20.33;19.67;;;;;25.90;100.00;101174.53;5075395;27;69508;-79
2023/09/09 02:17:08;;;;;;;;;18.00;17.00;;;;;25.90;100.00;101174.53;5074423;27;68806;-78
2023/09/09 02:19:33;;;;;;;;;21.00;18.33;;;;;25.88;100.00;101168.28;5067384;28;45203;-79
2023/09/09 02:21:58;;;;;;;;;23.33;21.33;;;;;25.88;100.00;101176.41;5064782;28;64801;-78
2023/09/09 02:24:24;;;;;;;;;19.33;19.33;;;;;25.88;100.00;101168.28;5064426;28;46668;-78
2023/09/09 02:26:49;;;;;;;;;23.33;20.00;;;;;25.90;100.00;101170.94;5071725;28;63800;-78
2023/09/09 02:29:15;;;;;;;;;20.67;18.67;;;;;25.86;100.00;101160.25;5070566;28;45268;-78
2023/09/09 02:31:40;;;;;;;;;19.00;17.67;;;;;25.81;100.00;101162.28;5074578;27;62687;-79
2023/09/09 02:34:06;;;;;;;;;22.67;17.67;;;;;25.82;100.00;101165.88;5068203;28;47167;-79
2023/09/09 02:36:31;;;;;;;;;20.33;18.00;;;;;25.81;100.00;101166.81;5070600;27;69466;-79
2023/09/09 02:38:56;;;;;;;;;21.67;19.00;;;;;25.79;100.00;101164.22;5061694;27;45875;-78
2023/09/09 02:41:22;;;;;;;;;22.00;18.33;;;;;25.79;100.00;101171.44;5072384;28;45543;-78
2023/09/09 02:43:47;;;;;;;;;18.67;17.67;;;;;25.79;100.00;101168.75;5062901;28;71172;-78
2023/09/09 02:46:13;;;;;;;;;21.00;19.00;;;;;25.76;100.00;101167.03;5067055;27;69831;-78
2023/09/09 02:48:38;;;;;;;;;20.00;19.00;;;;;25.75;100.00;101167.13;5078348;27;45386;-78
2023/09/09 02:51:03;;;;;;;;;24.67;20.67;;;;;25.75;100.00;101164.41;5066701;27;63400;-79
2023/09/09 02:53:30;;;;;;;;;22.67;20.33;;;;;25.76;100.00;101168.88;5061481;28;46481;-78
2023/09/09 02:55:55;;;;;;;;;25.00;22.33;;;;;25.73;100.00;101161.75;5071974;28;45377;-78
2023/09/09 02:58:20;;;;;;;;;24.00;22.67;;;;;25.70;100.00;101161.00;5060702;28;45848;-78
2023/09/09 03:00:47;;;;;;;;;24.33;21.67;;;;;25.68;100.00;101166.50;5063414;28;45287;-78
2023/09/09 03:03:13;;;;;;;;;24.00;21.67;;;;;25.69;100.00;101167.38;5076161;27;46574;-78
2023/09/09 03:05:38;;;;;;;;;22.33;20.00;;;;;25.68;100.00;101171.03;5076318;27;45275;-78
2023/09/09 03:08:04;;;;;;;;;25.33;23.00;;;;;25.65;100.00;101163.94;5074798;27;64411;-78
2023/09/09 03:10:30;;;;;;;;;27.33;21.33;;;;;25.66;100.00;101164.81;5072475;27;45593;-79
2023/09/09 03:12:56;;;;;;;;;22.67;20.33;;;;;25.62;100.00;101166.78;5073699;28;46257;-78
2023/09/09 03:15:23;;;;;;;;;23.00;21.00;;;;;25.63;100.00;101163.13;5069497;27;45364;-78
2023/09/09 03:17:48;;;;;;;;;24.33;23.33;;;;;25.63;100.00;101164.97;5070211;28;45334;-78
2023/09/09 03:20:13;;;;;;;;;24.33;21.33;;;;;25.60;100.00;101172.25;5068230;27;45340;-78
2023/09/09 03:22:39;;;;;;;;;24.00;20.00;;;;;25.60;100.00;101165.97;5064884;28;66417;-77
2023/09/09 03:25:05;;;;;;;;;20.67;20.67;;;;;25.57;100.00;101169.69;5065387;27;45347;-78
2023/09/09 03:27:30;;;;;;;;;24.33;19.00;;;;;25.58;100.00;101170.56;5071575;27;45415;-79
2023/09/09 03:29:55;;;;;;;;;21.00;21.00;;;;;25.55;100.00;101159.88;5062499;27;45303;-78
2023/09/09 03:32:21;;;;;;;;;21.00;18.67;;;;;25.54;100.00;101167.13;5057600;28;69817;-78
2023/09/09 03:34:46;;;;;;;;;20.33;18.67;;;;;25.49;100.00;101168.28;5071215;28;45325;-78
2023/09/09 03:37:11;;;;;;;;;25.00;21.00;;;;;25.49;100.00;101161.06;5064184;28;59881;-78
2023/09/09 03:39:37;;;;;;;;;21.00;20.33;;;;;25.50;100.00;101170.03;5066517;28;45603;-78
2023/09/09 03:42:02;;;;;;;;;24.33;22.33;;;;;25.47;100.00;101165.66;5063907;27;63123;-77
2023/09/09 03:44:27;;;;;;;;;27.00;20.67;;;;;25.44;100.00;101165.78;5074698;27;45488;-78
2023/09/09 03:46:53;;;;;;;;;22.33;20.33;;;;;25.42;100.00;101161.41;5074697;27;45934;-78
2023/09/09 03:49:18;;;;;;;;;22.33;21.33;;;;;25.40;100.00;101163.28;5075519;27;61824;-77
2023/09/09 03:51:44;;;;;;;;;25.00;22.00;;;;;25.39;100.00;101166.94;5070681;27;69578;-78
2023/09/09 03:54:10;;;;;;;;;24.00;18.67;;;;;25.35;100.00;101160.78;5073426;28;45313;-78
2023/09/09 03:56:35;;;;;;;;;21.67;20.67;;;;;25.32;100.00;101166.34;5063107;27;45786;-78
2023/09/09 03:59:01;;;;;;;;;17.33;16.00;;;;;25.35;100.00;101168.91;5075281;27;45954;-78
2023/09/09 04:01:26;;;;;;;;;18.00;17.67;;;;;25.31;100.00;101162.78;5064329;27;47260;-78
2023/09/09 04:03:51;;;;;;;;;22.33;21.33;;;;;25.31;100.00;101175.41;5069996;28;51198;-78
2023/09/09 04:06:18;;;;;;;;;16.33;16.33;;;;;25.30;100.00;101184.44;5064994;28;65678;-77
2023/09/09 04:08:45;;;;;;;;;25.33;19.33;;;;;25.24;100.00;101180.19;5075300;27;45504;-78
2023/09/09 04:11:10;;;;;;;;;18.33;15.33;;;;;25.23;100.00;101178.44;5073364;27;47395;-78
2023/09/09 04:13:40;;;;;;;;;20.33;19.33;;;;;25.25;100.00;101175.69;5071327;27;45473;-78
2023/09/09 04:16:05;;;;;;;;;23.00;19.33;;;;;25.24;100.00;101176.63;5067458;27;45345;-78
2023/09/09 04:18:31;;;;;;;;;20.00;17.67;;;;;25.21;100.00;101174.06;5064692;28;45338;-78
2023/09/09 04:20:56;;;;;;;;;20.33;16.33;;;;;25.21;100.00;101182.19;5063174;28;70949;-78
2023/09/09 04:23:21;;;;;;;;;22.00;18.67;;;;;25.19;100.00;101175.94;5069852;28;69398;-78
2023/09/09 04:25:47;;;;;;;;;20.67;19.00;;;;;25.19;100.00;101175.94;5067745;27;47021;-77
2023/09/09 04:28:13;;;;;;;;;19.33;17.33;;;;;25.17;100.00;101183.25;5083260;27;51457;-78
2023/09/09 04:30:39;;;;;;;;;23.00;21.00;;;;;25.14;100.00;101184.28;5061534;28;46586;-77
2023/09/09 04:33:11;;;;;;;;;20.00;15.00;;;;;25.14;100.00;101186.97;5067968;28;45406;-78
2023/09/09 04:35:41;;;;;;;;;18.67;18.00;;;;;25.14;100.00;101184.28;5072606;27;45410;-77
2023/09/09 04:38:06;;;;;;;;;20.33;18.67;;;;;25.12;100.00;101180.75;5069842;27;45389;-77
2023/09/09 04:40:32;;;;;;;;;19.67;19.67;;;;;25.11;100.00;101183.53;5072845;27;47784;-77
2023/09/09 04:42:58;;;;;;;;;14.33;14.33;;;;;25.06;100.00;101184.59;5067554;28;45417;-78
2023/09/09 04:45:23;;;;;;;;;18.67;17.67;;;;;25.03;100.00;101184.69;5065991;27;45687;-78
2023/09/09 04:47:52;;;;;;;;;24.33;19.33;;;;;25.01;100.00;101186.59;5071722;28;45812;-78
2023/09/09 04:50:19;;;;;;;;;20.67;18.67;;;;;25.01;100.00;101183.88;5065387;27;48501;-77
2023/09/09 04:52:45;;;;;;;;;18.33;16.33;;;;;25.00;100.00;101181.25;5061416;28;45445;-78
2023/09/09 04:55:10;;;;;;;;;18.33;18.33;;;;;24.98;100.00;101184.03;5064973;28;45465;-77
2023/09/09 04:57:36;;;;;;;;;16.33;16.33;;;;;24.99;100.00;101176.81;5066329;27;55735;-77
2023/09/09 05:00:06;;;;;;;;;20.00;18.33;;;;;24.99;100.00;101177.69;5064340;28;46431;-78
2023/09/09 05:02:32;;;;;;;;;24.00;19.00;;;;;24.99;100.00;101179.50;5074425;27;45464;-77
2023/09/09 05:04:57;;;;;;;;;18.33;18.33;;;;;24.95;100.00;101178.75;5068554;27;45390;-78
2023/09/09 05:07:23;;;;;;;;;20.67;17.67;;;;;24.91;100.00;101179.81;5062433;22;53462;-77
2023/09/09 05:09:48;;;;;;;;;13.00;12.00;;;;;24.89;100.00;101183.56;5076860;27;46620;-77
2023/09/09 05:12:14;;;;;;;;;19.00;15.67;;;;;24.91;100.00;101184.34;5070371;27;70881;-78
2023/09/09 05:14:39;;;;;;;;;17.33;16.00;;;;;24.89;100.00;101184.44;5076204;27;65530;-77
2023/09/09 05:17:04;;;;;;;;;17.67;17.33;;;;;24.88;100.00;101179.09;5075567;27;66081;-77
2023/09/09 05:19:30;;;;;;;;;18.67;17.33;;;;;24.87;100.00;101186.28;5075577;27;69969;-78
2023/09/09 05:21:55;;;;;;;;;20.67;17.67;;;;;24.87;100.00;101186.28;5075095;27;67905;-77
2023/09/09 05:24:20;;;;;;;;;17.33;17.33;;;;;24.85;100.00;101188.19;5074927;27;65141;-78
2023/09/09 05:26:45;;;;;;;;;17.00;16.00;;;;;24.86;100.00;101195.34;5070565;28;57283;-78
2023/09/09 05:29:11;;;;;;;;;17.33;17.33;;;;;24.88;100.00;101193.47;5075440;27;70457;-76
2023/09/09 05:31:36;;;;;;;;;18.67;16.00;;;;;24.88;100.00;101196.19;5076326;27;45387;-77
2023/09/09 05:34:02;;;;;;;;;16.00;16.00;;;;;24.79;100.00;101191.16;5070310;27;45741;-77
2023/09/09 05:36:28;;;;;;;;;18.33;16.33;;;;;24.81;100.00;101198.25;5074816;27;62102;-78
2023/09/09 05:38:59;;;;;;;;;15.00;14.33;;;;;24.80;100.00;101201.00;5070212;27;47428;-78
2023/09/09 05:41:28;;;;;;;;;19.67;16.67;;;;;24.80;100.00;101204.59;5071691;28;45341;-78
2023/09/09 05:43:54;;;;;;;;;18.00;18.00;;;;;24.79;100.00;101208.25;5076002;27;45488;-77
2023/09/09 05:46:19;;;;;;;;;18.00;16.33;;;;;24.77;100.00;101210.13;5075531;27;63007;-77
2023/09/09 05:48:45;;;;;;;;;16.67;16.67;;;;;24.82;100.00;101216.22;5075203;28;45635;-77
2023/09/09 05:51:10;;;;;;;;;19.00;16.67;;;;;24.82;100.00;101221.63;5069858;28;45555;-78
2023/09/09 05:53:36;;;;;;;;;19.67;16.00;;;;;24.83;100.00;101214.41;5078197;27;63947;-77
2023/09/09 05:56:01;;;;;;;;;18.33;17.33;;;;;24.85;100.00;101217.03;5077598;27;62073;-78
2023/09/09 05:58:26;;;;;;;;;17.00;16.00;;;;;24.86;100.00;101211.56;5078902;27;45627;-77
2023/09/09 06:00:52;;;;;;;;;18.67;17.00;;;;;24.86;100.00;101216.97;5078483;27;61952;-78
2023/09/09 06:03:17;;;;;;;;;19.33;16.67;;;;;24.90;100.00;101217.72;5079293;27;54726;-77
2023/09/09 06:05:42;;;;;;;;;15.67;15.67;;;;;24.91;100.00;101222.16;5078278;27;63253;-76
2023/09/09 06:08:08;;;;;;;;;17.33;17.33;;;;;24.92;100.00;101219.41;5076667;28;73417;-75
2023/09/09 06:10:33;;;;;;;;;20.00;17.67;;;;;24.94;100.00;101217.53;5079110;27;45325;-76
2023/09/09 06:12:58;;;;;;;;;18.33;17.00;;;;;24.97;100.00;101220.06;5071811;27;45937;-75
2023/09/09 06:15:24;;;;;;;;;17.00;16.00;;;;;25.02;100.00;101222.59;5073041;27;62919;-75
2023/09/09 06:17:49;;;;;;;;;18.67;16.67;;;;;25.05;100.00;101225.16;5077629;27;71313;-76
2023/09/09 06:20:15;;;;;;;;;16.00;15.00;;;;;25.07;100.00;101216.06;5078630;27;45570;-75
2023/09/09 06:22:40;;;;;;;;;14.00;14.00;;;;;25.11;100.00;101215.94;5074233;27;63252;-76
2023/09/09 06:25:06;;;;;;;;;20.33;18.33;;;;;25.15;100.00;101226.56;5071884;27;45465;-75
2023/09/09 06:27:31;;;;;;;;;21.67;16.33;;;;;25.19;100.00;101225.47;5071908;28;47520;-76
2023/09/09 06:29:56;;;;;;;;;19.33;17.67;;;;;25.23;100.00;101234.31;5075426;27;45267;-76
2023/09/09 06:32:22;;;;;;;;;20.67;19.00;;;;;25.28;100.00;101232.31;5073215;27;50601;-76
2023/09/09 06:34:47;;;;;;;;;19.33;16.67;;;;;25.32;100.00;101236.63;5065966;28;45377;-75
2023/09/09 06:37:12;;;;;;;;;15.67;15.67;;;;;25.36;100.00;101234.69;5077656;27;71097;-76
2023/09/09 06:39:38;;;;;;;;;20.33;17.00;;;;;25.41;100.00;101238.03;5073976;27;65280;-76
2023/09/09 06:42:03;;;;;;;;;16.33;15.33;;;;;25.45;100.00;101231.56;5076730;27;56367;-74
2023/09/09 06:44:28;;;;;;;;;16.67;16.67;;;;;25.49;100.00;101231.34;5078756;27;45438;-74
2023/09/09 06:46:54;;;;;;;;;19.00;16.00;;;;;25.52;100.00;101228.53;5071151;28;45486;-75
2023/09/09 06:49:19;;;;;;;;;20.67;18.67;;;;;25.56;100.00;101240.94;5074915;27;70908;-75
2023/09/09 06:51:45;;;;;;;;;16.00;14.33;;;;;25.59;100.00;101232.69;5074849;27;45421;-75
2023/09/09 06:54:10;;;;;;;;;15.67;15.67;;;;;25.59;100.00;101235.41;5077002;28;45421;-76
2023/09/09 06:56:35;;;;;;;;;20.33;16.67;;;;;25.61;100.00;101233.50;5071799;27;47157;-76
2023/09/09 06:59:01;;;;;;;;;17.67;17.67;;;;;25.67;100.00;101236.88;5072844;27;67960;-75
2023/09/09 07:01:26;;;;;;;;;18.33;17.33;;;;;25.68;100.00;101227.84;5065185;27;65357;-75
2023/09/09 07:03:52;;;;;;;;;18.00;18.00;;;;;25.70;100.00;101225.94;5074437;28;45449;-75
2023/09/09 07:06:17;;;;;;;;;17.33;17.00;;;;;25.73;100.00;101226.69;5067409;27;46140;-78
2023/09/09 07:08:43;;;;;;;;;18.00;18.00;;;;;25.77;100.00;101227.44;5072630;27;68335;-75
2023/09/09 07:11:08;;;;;;;;;14.00;14.00;;;;;25.78;100.00;101229.19;5075572;28;45401;-78
2023/09/09 07:13:34;;;;;;;;;17.33;15.00;;;;;25.83;100.00;101225.34;5075855;27;58753;-79
2023/09/09 07:15:59;;;;;;;;;19.00;16.67;;;;;25.84;100.00;101231.63;5074829;27;70671;-79
2023/09/09 07:18:24;;;;;;;;;16.67;15.33;;;;;25.91;100.00;101230.38;5076837;27;67601;-77
2023/09/09 07:20:50;;;;;;;;;19.00;17.33;;;;;25.94;100.00;101224.84;5077463;27;55957;-77
2023/09/09 07:23:16;;;;;;;;;21.33;17.00;;;;;26.00;100.00;101221.84;5078324;27;54047;-79
2023/09/09 07:25:42;;;;;;;;;22.33;18.00;;;;;26.07;100.00;101233.25;5076127;28;46525;-77
2023/09/09 07:28:08;;;;;;;;;16.33;15.33;;;;;26.12;100.00;101229.38;5078077;27;45426;-76
2023/09/09 07:30:33;;;;;;;;;25.00;17.33;;;;;26.16;100.00;101231.94;5078216;28;45307;-79
2023/09/09 07:32:59;;;;;;;;;23.00;18.67;;;;;26.18;100.00;101236.31;5077310;27;45273;-75
2023/09/09 07:35:24;;;;;;;;;20.00;17.00;;;;;26.22;100.00;101226.25;5076368;27;51780;-75
2023/09/09 07:37:50;;;;;;;;;21.33;17.67;;;;;26.29;100.00;101233.09;5076425;27;58186;-78
2023/09/09 07:40:16;;;;;;;;;17.33;17.33;;;;;26.36;100.00;101231.84;5075410;27;45448;-77
2023/09/09 07:42:41;;;;;;;;;16.33;15.67;;;;;26.42;100.00;101230.69;5076959;27;46744;-75
2023/09/09 07:45:07;;;;;;;;;20.00;20.00;;;;;26.44;100.00;101234.22;5075201;27;74246;-76
2023/09/09 07:47:32;;;;;;;;;24.33;19.00;;;;;26.47;100.00;101225.94;5075135;27;45535;-77
2023/09/09 07:49:58;;;;;;;;;20.67;19.67;;;;;26.53;100.00;101231.09;5074441;28;65842;-79
2023/09/09 07:52:23;;;;;;;;;21.00;16.00;;;;;26.59;100.00;101231.66;5076263;27;56807;-76
2023/09/09 07:54:49;;;;;;;;;16.33;12.67;;;;;26.63;100.00;101227.84;5075589;27;64892;-75
2023/09/09 07:57:14;;;;;;;;;15.33;11.00;;;;;26.73;100.00;101236.38;5077570;27;45432;-77
2023/09/09 07:59:40;;;;;;;;;13.33;12.00;;;;;26.81;100.00;101227.88;5072437;27;45254;-77
2023/09/09 08:02:05;;;;;;;;;11.67;10.33;;;;;26.90;100.00;101232.84;5076257;27;45452;-77
2023/09/09 08:04:31;;;;;;;;;12.00;11.00;;;;;26.95;100.00;101236.16;5075023;28;45637;-74
2023/09/09 08:06:56;;;;;;;;;21.33;19.67;;;;;27.01;100.00;101246.72;5075039;27;65921;-74
2023/09/09 08:11:51;;;;;;;;;17.67;14.00;;;;;27.16;100.00;101234.22;5168527;22;46323;-74
2023/09/09 08:14:18;;;;;;;;;14.00;13.00;;;;;27.27;100.00;101241.78;5046051;28;45646;-75
2023/09/09 08:16:43;;;;;;;;;12.67;10.00;;;;;27.34;100.00;101243.25;5051229;28;45310;-73
2023/09/09 08:19:09;;;;;;;;;13.00;12.33;;;;;27.41;100.00;101247.38;5054930;28;45553;-73
2023/09/09 08:21:34;;;;;;;;;13.00;13.00;;;;;27.48;100.00;101237.94;5050321;28;45958;-73
2023/09/09 08:24:00;;;;;;;;;15.33;9.33;;;;;27.54;100.00;101237.66;5049818;28;46756;-74
2023/09/09 08:26:26;;;;;;;;;13.67;11.00;;;;;27.64;100.00;101247.03;5048819;28;45467;-78
2023/09/09 08:28:51;;;;;;;;;14.00;13.00;;;;;27.74;100.00;101257.41;5051935;28;45544;-78
2023/09/09 08:31:17;;;;;;;;;17.67;12.00;;;;;27.81;100.00;101242.59;5045268;28;45544;-74
2023/09/09 08:33:42;;;;;;;;;13.00;13.00;;;;;27.86;100.00;101245.94;5047412;28;68441;-75
2023/09/09 08:36:07;;;;;;;;;15.67;12.33;;;;;27.93;100.00;101241.91;5052999;28;57895;-74
2023/09/09 08:38:33;;;;;;;;;13.67;12.00;;;;;28.00;100.00;101246.03;5045619;28;45484;-74
2023/09/09 08:41:10;;;;;;;;;12.67;12.00;;;;;28.06;100.00;101240.25;5044445;28;45311;-76
2023/09/09 08:43:45;;;;;;;;;15.00;12.00;;;;;28.14;100.00;101237.13;5043692;28;46733;-75
2023/09/09 08:46:15;;;;;;;;;12.33;12.33;;;;;28.20;100.00;101243.06;5052191;28;45505;-75
2023/09/09 08:48:42;;;;;;;;;12.33;12.00;;;;;28.28;100.00;101244.47;5056217;28;45292;-76
2023/09/09 08:51:13;;;;;;;;;12.00;10.00;;;;;28.33;100.00;101239.69;5055823;28;45453;-74
2023/09/09 08:53:46;;;;;;;;;13.67;11.00;;;;;28.41;100.00;101241.03;5041266;28;47065;-73
2023/09/09 08:56:12;;;;;;;;;10.33;9.00;;;;;28.45;100.00;101239.03;5049903;28;45335;-72
2023/09/09 08:58:40;;;;;;;;;12.67;12.00;;;;;28.52;100.00;101236.81;5051932;28;45468;-73
2023/09/09 09:01:05;;;;;;;;;12.33;11.00;;;;;28.59;100.00;101240.91;5049613;28;45314;-71
2023/09/09 09:03:33;;;;;;;;;17.67;13.00;;;;;28.64;100.00;101236.97;5050234;28;45493;-74
2023/09/09 09:05:58;;;;;;;;;16.67;12.00;;;;;28.67;100.00;101227.78;5034417;28;45475;-74
2023/09/09 09:08:24;;;;;;;;;11.33;11.33;;;;;28.74;100.00;101236.44;5041331;28;45707;-73
2023/09/09 09:10:49;;;;;;;;;13.33;12.00;;;;;28.78;100.00;101229.88;5046317;28;45361;-73
2023/09/09 09:13:15;;;;;;;;;13.00;12.00;;;;;28.81;100.00;101235.97;5048554;28;49245;-73
2023/09/09 09:15:41;;;;;;;;;13.00;12.00;;;;;28.86;100.00;101238.44;5044202;28;45310;-72
2023/09/09 09:18:10;;;;;;;;;14.67;12.67;;;;;28.90;100.00;101240.88;5047021;28;45312;-72
2023/09/09 09:20:36;;;;;;;;;9.00;8.67;;;;;28.96;100.00;101239.69;5052720;28;61613;-72
2023/09/09 09:23:04;;;;;;;;;11.67;9.67;;;;;28.99;100.00;101242.22;5055787;28;46545;-72
2023/09/09 09:25:36;;;;;;;;;13.00;13.00;;;;;29.00;100.00;101232.22;5057614;28;45353;-72
2023/09/09 09:28:02;;;;;;;;;12.67;12.00;;;;;29.04;100.00;101240.09;5060311;28;45498;-73
2023/09/09 09:30:29;;;;;;;;;12.00;12.00;;;;;29.07;100.00;101239.91;5057741;28;45510;-73
2023/09/09 09:32:55;;;;;;;;;9.67;9.67;;;;;29.09;100.00;101240.72;5060009;28;46494;-74
2023/09/09 09:35:26;;;;;;;;;13.33;12.00;;;;;29.16;100.00;101239.38;5055473;28;45429;-75
2023/09/09 09:38:02;;;;;;;;;17.00;12.33;;;;;29.22;100.00;101230.81;5059209;28;45461;-76
2023/09/09 09:40:29;;;;;;;;;14.00;11.33;;;;;29.32;100.00;101236.59;5058928;28;45398;-74
2023/09/09 09:42:55;;;;;;;;;12.33;10.00;;;;;29.36;100.00;101240.88;5056828;28;45795;-74
2023/09/09 09:45:28;;;;;;;;;13.00;11.33;;;;;29.43;100.00;101236.81;5057714;28;45263;-73
2023/09/09 09:47:55;;;;;;;;;12.33;11.00;;;;;29.49;100.00;101230.97;5058885;28;45491;-74
2023/09/09 09:50:30;;;;;;;;;12.33;10.33;;;;;29.63;100.00;101238.34;5059465;28;45165;-74
2023/09/09 09:53:06;;;;;;;;;11.00;11.00;;;;;29.76;100.00;101227.53;5059837;28;47077;-74
2023/09/09 09:55:33;;;;;;;;;13.00;12.00;;;;;29.87;100.00;101233.19;5059158;28;45413;-73
2023/09/09 09:58:03;;;;;;;;;11.33;11.33;;;;;30.01;100.00;101227.72;5059758;28;45209;-74
2023/09/09 10:00:29;;;;;;;;;12.00;12.00;;;;;30.14;100.00;101226.97;5057314;28;45263;-73
2023/09/09 10:02:56;;;;;;;;;16.67;14.00;;;;;30.24;100.00;101226.28;5049107;28;46239;-75
2023/09/09 10:05:23;;;;;;;;;13.00;13.00;;;;;30.35;100.00;101220.13;5059142;28;45446;-75
2023/09/09 10:07:54;;;;;;;;;15.00;14.00;;;;;30.48;100.00;101217.47;5059325;28;46302;-74
2023/09/09 10:10:24;;;;;;;;;15.67;12.00;;;;;30.61;100.00;101215.66;5052555;28;45206;-74
2023/09/09 10:12:58;;;;;;;;;15.00;13.00;;;;;30.74;100.00;101218.50;5057411;28;46493;-74
2023/09/09 10:15:25;;;;;;;;;12.33;11.33;;;;;30.88;100.00;101220.28;5053824;28;45437;-73
2023/09/09 10:17:51;;;;;;;;;13.33;11.67;;;;;31.01;100.00;101221.19;5055291;28;45408;-74
2023/09/09 10:20:17;;;;;;;;;14.67;12.00;;;;;31.13;100.00;101216.75;5053399;28;45480;-74
2023/09/09 10:22:45;;;;;;;;;13.00;11.33;;;;;31.23;100.00;101213.28;5047715;28;47416;-75
2023/09/09 10:25:10;;;;;;;;;13.33;12.67;;;;;31.37;98.49;101208.72;5051653;28;45536;-75
2023/09/09 10:27:37;;;;;;;;;12.00;12.00;;;;;31.46;97.57;101219.88;5057066;28;45426;-75
2023/09/09 10:30:03;;;;;;;;;12.67;12.67;;;;;31.58;96.91;101217.25;5056913;28;45522;-76
2023/09/09 10:32:29;;;;;;;;;10.67;10.33;;;;;31.69;94.94;101214.63;5045981;28;46477;-75
2023/09/09 10:34:56;;;;;;;;;20.67;15.00;;;;;31.81;94.19;101216.53;5038854;28;45311;-74
2023/09/09 10:37:22;;;;;;;;;16.33;13.00;;;;;31.94;93.33;101211.03;5042305;28;45425;-76
2023/09/09 10:39:48;;;;;;;;;14.33;14.33;;;;;32.05;93.17;101214.72;5039954;28;57605;-75
2023/09/09 10:42:15;;;;;;;;;17.00;12.33;;;;;32.17;92.37;101214.81;5044277;28;54127;-77
2023/09/09 10:44:41;;;;;;;;;14.67;13.00;;;;;32.28;92.23;101214.88;5054632;28;45706;-76
2023/09/09 10:47:09;;;;;;;;;23.00;20.00;;;;;32.38;90.71;101212.38;5053540;28;64751;-76
2023/09/09 10:49:34;;;;;;;;;16.33;14.00;;;;;32.45;90.23;101205.50;5054768;28;61898;-75
2023/09/09 10:51:59;;;;;;;;;14.67;14.33;;;;;32.58;89.66;101206.28;5047120;28;67592;-75
2023/09/09 10:54:26;;;;;;;;;15.00;15.00;;;;;32.68;89.63;101207.34;5054165;28;68401;-77
2023/09/09 10:56:53;;;;;;;;;13.67;12.33;;;;;32.78;89.02;101202.94;5056851;28;45379;-76
2023/09/09 10:59:20;;;;;;;;;14.33;13.33;;;;;32.86;87.72;101205.94;5051846;28;45453;-75